createdAt,value
2022-11-15T00:03:37.008Z,22.50
2022-11-15T00:18:38.467Z,22.40
2022-11-15T00:33:39.919Z,22.40
2022-11-15T00:48:41.395Z,22.40
2022-11-15T01:03:42.847Z,22.40
2022-11-15T01:18:44.301Z,22.30
2022-11-15T01:33:45.743Z,22.30
2022-11-15T01:48:47.187Z,22.30
2022-11-15T02:03:48.827Z,22.30
2022-11-15T02:18:50.279Z,22.30
2022-11-15T02:33:51.719Z,22.30
2022-11-15T02:48:53.182Z,22.30
2022-11-15T03:03:54.627Z,22.30
2022-11-15T03:18:56.076Z,22.20
2022-11-15T03:33:57.525Z,22.20
2022-11-15T03:48:58.981Z,22.20
2022-11-15T04:04:00.433Z,22.20
2022-11-15T04:19:01.875Z,22.20
2022-11-15T04:34:03.392Z,22.20
2022-11-15T04:49:04.835Z,22.20
2022-11-15T05:04:06.328Z,22.20
2022-11-15T05:19:07.781Z,22.20
2022-11-15T05:34:09.239Z,22.20
2022-11-15T05:49:10.699Z,22.10
2022-11-15T06:04:12.156Z,22.20
2022-11-15T06:19:13.609Z,22.10
2022-11-15T06:34:15.083Z,22.10
2022-11-15T06:49:16.521Z,22.10
2022-11-15T07:04:17.987Z,22.10
2022-11-15T07:19:19.504Z,22.20
2022-11-15T07:34:20.954Z,22.20
2022-11-15T07:49:22.416Z,22.20
2022-11-15T08:04:23.855Z,22.20
2022-11-15T08:19:25.342Z,22.10
2022-11-15T08:34:26.806Z,22.10
2022-11-15T08:49:28.271Z,22.10
2022-11-15T09:04:29.727Z,22.20
2022-11-15T09:19:31.244Z,22.40
2022-11-15T09:34:32.719Z,22.60
2022-11-15T09:49:34.166Z,22.60
2022-11-15T10:04:35.679Z,22.60
2022-11-15T10:19:37.132Z,22.80
2022-11-15T10:34:38.686Z,23.20
2022-11-15T10:49:40.184Z,24.00
2022-11-15T11:04:41.660Z,24.60
2022-11-15T11:19:43.104Z,24.70
2022-11-15T11:34:44.560Z,27.10
2022-11-15T11:49:46.043Z,27.60
2022-11-15T12:04:47.505Z,29.00
2022-11-15T12:19:48.996Z,30.90
2022-11-15T12:34:50.463Z,31.70
2022-11-15T12:49:51.933Z,31.70
2022-11-15T13:04:53.439Z,30.70
2022-11-15T13:19:54.885Z,29.70
2022-11-15T13:34:56.361Z,28.70
2022-11-15T13:49:57.813Z,28.10
2022-11-15T14:04:59.288Z,27.40
2022-11-15T14:20:00.775Z,27.00
2022-11-15T14:35:02.256Z,26.50
2022-11-15T14:50:03.821Z,26.10
2022-11-15T15:05:05.289Z,25.70
2022-11-15T15:20:06.752Z,25.30
2022-11-15T15:35:08.188Z,25.00
2022-11-15T15:50:09.641Z,24.80
2022-11-15T16:05:11.087Z,24.50
2022-11-15T16:20:12.536Z,24.30
2022-11-15T16:35:13.982Z,24.10
2022-11-15T16:50:15.504Z,24.00
2022-11-15T17:05:20.059Z,23.80
2022-11-15T17:20:21.895Z,23.70
2022-11-15T17:35:23.345Z,23.60
2022-11-15T17:50:24.798Z,23.50
2022-11-15T18:05:27.391Z,23.40
2022-11-15T18:20:29.181Z,23.30
2022-11-15T18:35:30.709Z,23.30
2022-11-15T18:50:32.180Z,23.20
2022-11-15T19:05:33.639Z,23.20
2022-11-15T19:20:35.179Z,23.10
2022-11-15T19:35:36.643Z,23.10
2022-11-15T19:50:38.104Z,23.00
2022-11-15T20:05:39.574Z,22.90
2022-11-15T20:20:41.040Z,22.90
2022-11-15T20:35:42.536Z,22.80
2022-11-15T20:50:44.022Z,22.80
2022-11-15T21:05:45.494Z,22.80
2022-11-15T21:20:46.995Z,22.70
2022-11-15T21:35:48.514Z,22.70
2022-11-15T21:50:49.969Z,22.70
2022-11-15T22:05:51.437Z,22.60
2022-11-15T22:20:53.005Z,22.60
2022-11-15T22:35:54.462Z,22.60
2022-11-15T22:50:55.899Z,22.50
2022-11-15T23:05:57.363Z,22.50
2022-11-15T23:20:58.800Z,22.50
2022-11-15T23:36:00.265Z,22.50
2022-11-15T23:51:01.722Z,22.40
